sensor_id;sensor_type;location;lat;lon;timestamp;temperature;humidity
17437;DHT22;70275;52.198;5.422;2023-07-13T00:01:37;18.00;75.80
17437;DHT22;70275;52.198;5.422;2023-07-13T00:04:07;17.90;76.20
17437;DHT22;70275;52.198;5.422;2023-07-13T00:06:36;17.80;76.50
17437;DHT22;70275;52.198;5.422;2023-07-13T00:09:05;17.80;76.60
17437;DHT22;70275;52.198;5.422;2023-07-13T00:11:35;17.60;76.80
17437;DHT22;70275;52.198;5.422;2023-07-13T00:14:05;17.50;77.50
17437;DHT22;70275;52.198;5.422;2023-07-13T00:16:37;17.50;77.60
17437;DHT22;70275;52.198;5.422;2023-07-13T00:19:09;17.50;77.70
17437;DHT22;70275;52.198;5.422;2023-07-13T00:21:40;17.40;78.00
17437;DHT22;70275;52.198;5.422;2023-07-13T00:24:12;17.50;77.80
17437;DHT22;70275;52.198;5.422;2023-07-13T00:26:47;17.50;77.80
17437;DHT22;70275;52.198;5.422;2023-07-13T00:29:17;17.40;77.90
17437;DHT22;70275;52.198;5.422;2023-07-13T00:31:49;17.40;78.10
17437;DHT22;70275;52.198;5.422;2023-07-13T00:34:18;17.40;77.90
17437;DHT22;70275;52.198;5.422;2023-07-13T00:36:47;17.30;78.30
17437;DHT22;70275;52.198;5.422;2023-07-13T00:39:16;17.30;78.00
17437;DHT22;70275;52.198;5.422;2023-07-13T00:41:46;17.30;78.20
17437;DHT22;70275;52.198;5.422;2023-07-13T00:44:17;17.30;78.00
17437;DHT22;70275;52.198;5.422;2023-07-13T00:46:51;17.20;78.10
17437;DHT22;70275;52.198;5.422;2023-07-13T00:49:23;17.30;77.90
17437;DHT22;70275;52.198;5.422;2023-07-13T00:51:56;17.20;78.10
17437;DHT22;70275;52.198;5.422;2023-07-13T00:54:30;17.20;78.00
17437;DHT22;70275;52.198;5.422;2023-07-13T00:57:06;17.10;78.10
17437;DHT22;70275;52.198;5.422;2023-07-13T00:59:41;17.10;78.20
17437;DHT22;70275;52.198;5.422;2023-07-13T01:02:16;17.10;78.40
17437;DHT22;70275;52.198;5.422;2023-07-13T01:04:47;17.00;78.20
17437;DHT22;70275;52.198;5.422;2023-07-13T01:07:16;16.90;78.40
17437;DHT22;70275;52.198;5.422;2023-07-13T01:09:47;16.90;78.50
17437;DHT22;70275;52.198;5.422;2023-07-13T01:12:16;16.80;78.60
17437;DHT22;70275;52.198;5.422;2023-07-13T01:14:46;16.70;78.90
17437;DHT22;70275;52.198;5.422;2023-07-13T01:17:18;16.70;78.80
17437;DHT22;70275;52.198;5.422;2023-07-13T01:19:47;16.60;79.00
17437;DHT22;70275;52.198;5.422;2023-07-13T01:22:19;16.70;78.90
17437;DHT22;70275;52.198;5.422;2023-07-13T01:24:53;16.70;79.00
17437;DHT22;70275;52.198;5.422;2023-07-13T01:27:24;16.60;79.10
17437;DHT22;70275;52.198;5.422;2023-07-13T01:29:54;16.60;79.30
17437;DHT22;70275;52.198;5.422;2023-07-13T01:32:27;16.60;79.20
17437;DHT22;70275;52.198;5.422;2023-07-13T01:34:58;16.50;79.40
17437;DHT22;70275;52.198;5.422;2023-07-13T01:37:30;16.50;79.50
17437;DHT22;70275;52.198;5.422;2023-07-13T01:40:02;16.50;79.60
17437;DHT22;70275;52.198;5.422;2023-07-13T01:42:31;16.50;79.70
17437;DHT22;70275;52.198;5.422;2023-07-13T01:45:00;16.50;79.80
17437;DHT22;70275;52.198;5.422;2023-07-13T01:47:29;16.40;80.00
17437;DHT22;70275;52.198;5.422;2023-07-13T01:49:59;16.40;80.30
17437;DHT22;70275;52.198;5.422;2023-07-13T01:52:31;16.40;80.30
17437;DHT22;70275;52.198;5.422;2023-07-13T01:55:00;16.40;80.50
17437;DHT22;70275;52.198;5.422;2023-07-13T01:57:29;16.30;80.70
17437;DHT22;70275;52.198;5.422;2023-07-13T01:59:59;16.30;80.80
17437;DHT22;70275;52.198;5.422;2023-07-13T02:02:28;16.40;80.90
17437;DHT22;70275;52.198;5.422;2023-07-13T02:04:57;16.40;81.00
17437;DHT22;70275;52.198;5.422;2023-07-13T02:07:26;16.40;81.00
17437;DHT22;70275;52.198;5.422;2023-07-13T02:09:58;16.30;81.20
17437;DHT22;70275;52.198;5.422;2023-07-13T02:12:27;16.40;81.10
17437;DHT22;70275;52.198;5.422;2023-07-13T02:14:57;16.40;81.10
17437;DHT22;70275;52.198;5.422;2023-07-13T02:17:26;16.20;81.40
17437;DHT22;70275;52.198;5.422;2023-07-13T02:19:56;16.10;81.90
17437;DHT22;70275;52.198;5.422;2023-07-13T02:22:26;16.10;82.10
17437;DHT22;70275;52.198;5.422;2023-07-13T02:24:58;16.00;82.20
17437;DHT22;70275;52.198;5.422;2023-07-13T02:27:27;15.90;82.40
17437;DHT22;70275;52.198;5.422;2023-07-13T02:29:56;15.80;82.70
17437;DHT22;70275;52.198;5.422;2023-07-13T02:32:25;15.90;82.80
17437;DHT22;70275;52.198;5.422;2023-07-13T02:34:54;15.90;82.60
17437;DHT22;70275;52.198;5.422;2023-07-13T02:37:24;15.80;82.90
17437;DHT22;70275;52.198;5.422;2023-07-13T02:39:53;15.80;82.90
17437;DHT22;70275;52.198;5.422;2023-07-13T02:42:25;15.80;83.00
17437;DHT22;70275;52.198;5.422;2023-07-13T02:44:54;15.80;83.10
17437;DHT22;70275;52.198;5.422;2023-07-13T02:47:23;15.80;83.10
17437;DHT22;70275;52.198;5.422;2023-07-13T02:49:53;15.70;83.10
17437;DHT22;70275;52.198;5.422;2023-07-13T02:52:22;15.70;83.10
17437;DHT22;70275;52.198;5.422;2023-07-13T02:54:51;15.70;83.10
17437;DHT22;70275;52.198;5.422;2023-07-13T02:57:20;15.60;83.10
17437;DHT22;70275;52.198;5.422;2023-07-13T02:59:52;15.60;83.10
17437;DHT22;70275;52.198;5.422;2023-07-13T03:02:22;15.60;83.10
17437;DHT22;70275;52.198;5.422;2023-07-13T03:04:54;15.60;83.10
17437;DHT22;70275;52.198;5.422;2023-07-13T03:07:23;15.60;83.10
17437;DHT22;70275;52.198;5.422;2023-07-13T03:09:55;15.60;83.10
17437;DHT22;70275;52.198;5.422;2023-07-13T03:12:25;15.60;83.10
17437;DHT22;70275;52.198;5.422;2023-07-13T03:14:57;15.60;83.10
17437;DHT22;70275;52.198;5.422;2023-07-13T03:17:26;15.60;83.10
17437;DHT22;70275;52.198;5.422;2023-07-13T03:19:56;15.60;83.10
17437;DHT22;70275;52.198;5.422;2023-07-13T03:22:25;15.60;83.10
17437;DHT22;70275;52.198;5.422;2023-07-13T03:24:55;15.60;83.10
17437;DHT22;70275;52.198;5.422;2023-07-13T03:27:24;15.60;83.10
17437;DHT22;70275;52.198;5.422;2023-07-13T03:29:56;15.70;83.10
17437;DHT22;70275;52.198;5.422;2023-07-13T03:32:26;15.60;83.10
17437;DHT22;70275;52.198;5.422;2023-07-13T03:34:55;15.70;83.10
17437;DHT22;70275;52.198;5.422;2023-07-13T03:37:24;15.60;83.10
17437;DHT22;70275;52.198;5.422;2023-07-13T03:39:54;15.70;83.10
17437;DHT22;70275;52.198;5.422;2023-07-13T03:42:23;15.70;83.10
17437;DHT22;70275;52.198;5.422;2023-07-13T03:44:52;15.70;83.10
17437;DHT22;70275;52.198;5.422;2023-07-13T03:47:24;15.70;83.10
17437;DHT22;70275;52.198;5.422;2023-07-13T03:49:54;15.60;83.10
17437;DHT22;70275;52.198;5.422;2023-07-13T03:52:23;15.60;83.10
17437;DHT22;70275;52.198;5.422;2023-07-13T03:54:52;15.60;83.10
17437;DHT22;70275;52.198;5.422;2023-07-13T03:57:21;15.60;83.10
17437;DHT22;70275;52.198;5.422;2023-07-13T03:59:51;15.60;83.10
17437;DHT22;70275;52.198;5.422;2023-07-13T04:02:23;15.50;83.10
17437;DHT22;70275;52.198;5.422;2023-07-13T04:04:52;15.50;83.10
17437;DHT22;70275;52.198;5.422;2023-07-13T04:07:21;15.50;83.10
17437;DHT22;70275;52.198;5.422;2023-07-13T04:09:51;15.40;83.10
17437;DHT22;70275;52.198;5.422;2023-07-13T04:12:20;15.50;83.10
17437;DHT22;70275;52.198;5.422;2023-07-13T04:14:50;15.50;83.10
17437;DHT22;70275;52.198;5.422;2023-07-13T04:17:22;15.50;83.10
17437;DHT22;70275;52.198;5.422;2023-07-13T04:19:52;15.50;83.10
17437;DHT22;70275;52.198;5.422;2023-07-13T04:22:21;15.50;83.10
17437;DHT22;70275;52.198;5.422;2023-07-13T04:24:50;15.50;83.10
17437;DHT22;70275;52.198;5.422;2023-07-13T04:27:19;15.50;83.10
17437;DHT22;70275;52.198;5.422;2023-07-13T04:29:49;15.50;83.10
17437;DHT22;70275;52.198;5.422;2023-07-13T04:32:18;15.60;83.10
17437;DHT22;70275;52.198;5.422;2023-07-13T04:34:50;15.60;83.10
17437;DHT22;70275;52.198;5.422;2023-07-13T04:37:21;15.70;83.10
17437;DHT22;70275;52.198;5.422;2023-07-13T04:39:50;15.70;83.10
17437;DHT22;70275;52.198;5.422;2023-07-13T04:42:20;15.70;83.10
17437;DHT22;70275;52.198;5.422;2023-07-13T04:44:49;15.70;83.10
17437;DHT22;70275;52.198;5.422;2023-07-13T04:47:19;15.70;83.10
17437;DHT22;70275;52.198;5.422;2023-07-13T04:49:51;15.90;83.10
17437;DHT22;70275;52.198;5.422;2023-07-13T04:52:20;15.90;83.10
17437;DHT22;70275;52.198;5.422;2023-07-13T04:54:50;15.90;83.10
17437;DHT22;70275;52.198;5.422;2023-07-13T04:57:19;16.00;83.10
17437;DHT22;70275;52.198;5.422;2023-07-13T04:59:48;16.00;83.10
17437;DHT22;70275;52.198;5.422;2023-07-13T05:02:18;16.10;83.10
17437;DHT22;70275;52.198;5.422;2023-07-13T05:04:51;16.10;83.10
17437;DHT22;70275;52.198;5.422;2023-07-13T05:07:22;16.20;83.10
17437;DHT22;70275;52.198;5.422;2023-07-13T05:09:51;16.20;83.10
17437;DHT22;70275;52.198;5.422;2023-07-13T05:12:20;16.30;83.10
17437;DHT22;70275;52.198;5.422;2023-07-13T05:14:49;16.30;83.10
17437;DHT22;70275;52.198;5.422;2023-07-13T05:17:19;16.30;83.10
17437;DHT22;70275;52.198;5.422;2023-07-13T05:19:50;16.30;83.10
17437;DHT22;70275;52.198;5.422;2023-07-13T05:22:20;16.40;83.10
17437;DHT22;70275;52.198;5.422;2023-07-13T05:24:49;16.50;83.10
17437;DHT22;70275;52.198;5.422;2023-07-13T05:27:18;16.50;83.10
17437;DHT22;70275;52.198;5.422;2023-07-13T05:29:48;16.50;83.10
17437;DHT22;70275;52.198;5.422;2023-07-13T05:32:17;16.60;83.10
17437;DHT22;70275;52.198;5.422;2023-07-13T05:34:47;16.60;83.10
17437;DHT22;70275;52.198;5.422;2023-07-13T05:37:18;16.70;83.10
17437;DHT22;70275;52.198;5.422;2023-07-13T05:39:48;16.80;83.10
17437;DHT22;70275;52.198;5.422;2023-07-13T05:42:17;16.80;83.10
17437;DHT22;70275;52.198;5.422;2023-07-13T05:44:46;16.80;83.10
17437;DHT22;70275;52.198;5.422;2023-07-13T05:47:15;16.90;83.10
17437;DHT22;70275;52.198;5.422;2023-07-13T05:49:44;17.10;83.10
17437;DHT22;70275;52.198;5.422;2023-07-13T05:52:14;17.20;83.10
17437;DHT22;70275;52.198;5.422;2023-07-13T05:54:45;17.40;83.10
17437;DHT22;70275;52.198;5.422;2023-07-13T05:57:15;17.50;83.10
17437;DHT22;70275;52.198;5.422;2023-07-13T05:59:44;17.40;83.10
17437;DHT22;70275;52.198;5.422;2023-07-13T06:02:14;17.40;83.10
17437;DHT22;70275;52.198;5.422;2023-07-13T06:04:43;17.40;83.10
17437;DHT22;70275;52.198;5.422;2023-07-13T06:07:12;17.40;83.10
17437;DHT22;70275;52.198;5.422;2023-07-13T06:09:41;17.20;83.10
17437;DHT22;70275;52.198;5.422;2023-07-13T06:12:13;17.40;83.10
17437;DHT22;70275;52.198;5.422;2023-07-13T06:14:42;17.60;83.00
17437;DHT22;70275;52.198;5.422;2023-07-13T06:17:12;17.90;82.20
17437;DHT22;70275;52.198;5.422;2023-07-13T06:19:41;17.90;82.50
17437;DHT22;70275;52.198;5.422;2023-07-13T06:22:11;18.20;82.10
17437;DHT22;70275;52.198;5.422;2023-07-13T06:24:40;18.10;82.10
17437;DHT22;70275;52.198;5.422;2023-07-13T06:27:12;18.30;81.70
17437;DHT22;70275;52.198;5.422;2023-07-13T06:29:41;18.20;81.90
17437;DHT22;70275;52.198;5.422;2023-07-13T06:32:10;18.10;82.00
17437;DHT22;70275;52.198;5.422;2023-07-13T06:34:40;18.10;82.10
17437;DHT22;70275;52.198;5.422;2023-07-13T06:37:09;18.30;82.00
17437;DHT22;70275;52.198;5.422;2023-07-13T06:39:38;18.50;81.30
17437;DHT22;70275;52.198;5.422;2023-07-13T06:42:08;18.60;80.80
17437;DHT22;70275;52.198;5.422;2023-07-13T06:44:39;18.70;80.10
17437;DHT22;70275;52.198;5.422;2023-07-13T06:47:09;19.40;78.30
17437;DHT22;70275;52.198;5.422;2023-07-13T06:49:38;19.40;77.40
17437;DHT22;70275;52.198;5.422;2023-07-13T06:52:07;19.30;78.10
17437;DHT22;70275;52.198;5.422;2023-07-13T06:54:36;19.00;78.80
17437;DHT22;70275;52.198;5.422;2023-07-13T06:57:06;19.10;78.80
17437;DHT22;70275;52.198;5.422;2023-07-13T06:59:38;19.10;78.50
17437;DHT22;70275;52.198;5.422;2023-07-13T07:02:09;19.20;78.30
17437;DHT22;70275;52.198;5.422;2023-07-13T07:04:39;19.50;77.30
17437;DHT22;70275;52.198;5.422;2023-07-13T07:07:08;19.50;77.60
17437;DHT22;70275;52.198;5.422;2023-07-13T07:09:38;19.80;76.80
17437;DHT22;70275;52.198;5.422;2023-07-13T07:12:07;19.90;76.30
17437;DHT22;70275;52.198;5.422;2023-07-13T07:14:39;19.60;77.10
17437;DHT22;70275;52.198;5.422;2023-07-13T07:17:09;19.40;77.50
17437;DHT22;70275;52.198;5.422;2023-07-13T07:19:38;19.40;77.80
17437;DHT22;70275;52.198;5.422;2023-07-13T07:22:07;19.40;77.30
17437;DHT22;70275;52.198;5.422;2023-07-13T07:24:37;19.30;77.80
17437;DHT22;70275;52.198;5.422;2023-07-13T07:27:06;19.10;78.80
17437;DHT22;70275;52.198;5.422;2023-07-13T07:29:35;18.70;80.50
17437;DHT22;70275;52.198;5.422;2023-07-13T07:32:08;18.30;82.00
17437;DHT22;70275;52.198;5.422;2023-07-13T07:34:39;18.00;83.10
17437;DHT22;70275;52.198;5.422;2023-07-13T07:37:11;18.10;83.10
17437;DHT22;70275;52.198;5.422;2023-07-13T07:39:43;17.90;83.10
17437;DHT22;70275;52.198;5.422;2023-07-13T07:42:12;17.70;83.10
17437;DHT22;70275;52.198;5.422;2023-07-13T07:44:41;17.90;83.10
17437;DHT22;70275;52.198;5.422;2023-07-13T07:47:13;18.20;83.10
17437;DHT22;70275;52.198;5.422;2023-07-13T07:49:42;18.30;82.30
17437;DHT22;70275;52.198;5.422;2023-07-13T07:52:12;18.50;82.80
17437;DHT22;70275;52.198;5.422;2023-07-13T07:54:41;18.60;82.10
17437;DHT22;70275;52.198;5.422;2023-07-13T07:57:10;18.90;80.80
17437;DHT22;70275;52.198;5.422;2023-07-13T07:59:39;18.80;81.90
17437;DHT22;70275;52.198;5.422;2023-07-13T08:02:13;18.80;81.20
17437;DHT22;70275;52.198;5.422;2023-07-13T08:04:42;18.90;81.70
17437;DHT22;70275;52.198;5.422;2023-07-13T08:07:11;19.00;81.30
17437;DHT22;70275;52.198;5.422;2023-07-13T08:09:40;19.10;82.10
17437;DHT22;70275;52.198;5.422;2023-07-13T08:12:10;19.20;80.70
17437;DHT22;70275;52.198;5.422;2023-07-13T08:14:39;19.30;80.80
17437;DHT22;70275;52.198;5.422;2023-07-13T08:17:08;19.40;80.50
17437;DHT22;70275;52.198;5.422;2023-07-13T08:19:40;19.80;79.40
17437;DHT22;70275;52.198;5.422;2023-07-13T08:22:09;19.60;79.40
17437;DHT22;70275;52.198;5.422;2023-07-13T08:24:39;19.40;79.80
17437;DHT22;70275;52.198;5.422;2023-07-13T08:27:08;19.60;79.60
17437;DHT22;70275;52.198;5.422;2023-07-13T08:29:37;19.90;78.20
17437;DHT22;70275;52.198;5.422;2023-07-13T08:32:08;20.00;75.90
17437;DHT22;70275;52.198;5.422;2023-07-13T08:34:40;20.10;75.00
17437;DHT22;70275;52.198;5.422;2023-07-13T08:37:09;20.40;72.90
17437;DHT22;70275;52.198;5.422;2023-07-13T08:39:39;20.90;73.40
17437;DHT22;70275;52.198;5.422;2023-07-13T08:42:16;21.10;69.50
17437;DHT22;70275;52.198;5.422;2023-07-13T08:45:04;20.30;73.80
17437;DHT22;70275;52.198;5.422;2023-07-13T08:47:47;19.00;80.00
17437;DHT22;70275;52.198;5.422;2023-07-13T08:50:28;18.30;83.10
17437;DHT22;70275;52.198;5.422;2023-07-13T08:53:02;18.20;83.10
17437;DHT22;70275;52.198;5.422;2023-07-13T08:55:34;18.00;83.10
17437;DHT22;70275;52.198;5.422;2023-07-13T08:58:10;17.60;83.10
17437;DHT22;70275;52.198;5.422;2023-07-13T09:00:48;17.40;82.50
17437;DHT22;70275;52.198;5.422;2023-07-13T09:03:31;17.40;82.10
17437;DHT22;70275;52.198;5.422;2023-07-13T09:06:10;17.30;82.30
17437;DHT22;70275;52.198;5.422;2023-07-13T09:08:53;17.60;80.90
17437;DHT22;70275;52.198;5.422;2023-07-13T09:11:36;17.60;81.30
17437;DHT22;70275;52.198;5.422;2023-07-13T09:14:33;17.60;79.70
17437;DHT22;70275;52.198;5.422;2023-07-13T09:17:14;17.30;81.10
17437;DHT22;70275;52.198;5.422;2023-07-13T09:19:49;17.30;82.20
17437;DHT22;70275;52.198;5.422;2023-07-13T09:22:30;17.60;81.70
17437;DHT22;70275;52.198;5.422;2023-07-13T09:25:10;18.10;81.40
17437;DHT22;70275;52.198;5.422;2023-07-13T09:27:52;18.40;80.80
17437;DHT22;70275;52.198;5.422;2023-07-13T09:30:34;18.20;80.90
17437;DHT22;70275;52.198;5.422;2023-07-13T09:33:10;18.30;81.70
17437;DHT22;70275;52.198;5.422;2023-07-13T09:35:40;18.00;82.30
17437;DHT22;70275;52.198;5.422;2023-07-13T09:38:16;17.90;82.80
17437;DHT22;70275;52.198;5.422;2023-07-13T09:41:01;18.00;82.30
17437;DHT22;70275;52.198;5.422;2023-07-13T09:44:00;18.00;82.90
17437;DHT22;70275;52.198;5.422;2023-07-13T09:46:30;18.00;83.10
17437;DHT22;70275;52.198;5.422;2023-07-13T09:49:00;18.10;83.10
17437;DHT22;70275;52.198;5.422;2023-07-13T09:51:29;17.80;83.10
17437;DHT22;70275;52.198;5.422;2023-07-13T09:54:01;17.50;83.10
17437;DHT22;70275;52.198;5.422;2023-07-13T09:56:30;17.10;83.10
17437;DHT22;70275;52.198;5.422;2023-07-13T09:59:00;16.80;83.10
17437;DHT22;70275;52.198;5.422;2023-07-13T10:01:34;16.60;83.10
17437;DHT22;70275;52.198;5.422;2023-07-13T10:04:11;16.80;83.10
17437;DHT22;70275;52.198;5.422;2023-07-13T10:06:41;17.40;83.10
17437;DHT22;70275;52.198;5.422;2023-07-13T10:09:17;17.90;83.10
17437;DHT22;70275;52.198;5.422;2023-07-13T10:11:46;17.70;81.60
17437;DHT22;70275;52.198;5.422;2023-07-13T10:14:21;17.90;82.10
17437;DHT22;70275;52.198;5.422;2023-07-13T10:16:56;18.50;82.80
17437;DHT22;70275;52.198;5.422;2023-07-13T10:19:31;18.90;81.60
17437;DHT22;70275;52.198;5.422;2023-07-13T10:22:12;19.50;80.00
17437;DHT22;70275;52.198;5.422;2023-07-13T10:24:55;19.90;79.70
17437;DHT22;70275;52.198;5.422;2023-07-13T10:27:31;19.90;75.80
17437;DHT22;70275;52.198;5.422;2023-07-13T10:30:12;19.60;78.30
17437;DHT22;70275;52.198;5.422;2023-07-13T10:32:46;19.90;77.40
17437;DHT22;70275;52.198;5.422;2023-07-13T10:35:18;20.40;78.40
17437;DHT22;70275;52.198;5.422;2023-07-13T10:37:52;20.50;77.80
17437;DHT22;70275;52.198;5.422;2023-07-13T10:40:31;20.40;76.30
17437;DHT22;70275;52.198;5.422;2023-07-13T10:43:09;20.60;77.80
17437;DHT22;70275;52.198;5.422;2023-07-13T10:45:45;20.70;76.80
17437;DHT22;70275;52.198;5.422;2023-07-13T10:48:17;20.50;76.40
17437;DHT22;70275;52.198;5.422;2023-07-13T10:50:51;20.90;76.10
17437;DHT22;70275;52.198;5.422;2023-07-13T10:53:29;21.00;73.60
17437;DHT22;70275;52.198;5.422;2023-07-13T10:56:03;21.20;75.20
17437;DHT22;70275;52.198;5.422;2023-07-13T10:58:37;21.40;71.70
17437;DHT22;70275;52.198;5.422;2023-07-13T11:01:12;21.70;73.20
17437;DHT22;70275;52.198;5.422;2023-07-13T11:03:49;21.60;71.30
17437;DHT22;70275;52.198;5.422;2023-07-13T11:06:37;21.30;74.10
17437;DHT22;70275;52.198;5.422;2023-07-13T11:09:36;20.30;78.60
17437;DHT22;70275;52.198;5.422;2023-07-13T11:12:25;19.20;82.40
17437;DHT22;70275;52.198;5.422;2023-07-13T11:15:12;17.70;83.00
17437;DHT22;70275;52.198;5.422;2023-07-13T11:17:49;17.20;82.60
17437;DHT22;70275;52.198;5.422;2023-07-13T11:20:33;17.70;83.00
17437;DHT22;70275;52.198;5.422;2023-07-13T11:23:16;18.80;81.50
17437;DHT22;70275;52.198;5.422;2023-07-13T11:25:57;19.70;79.10
17437;DHT22;70275;52.198;5.422;2023-07-13T11:28:31;19.60;79.90
17437;DHT22;70275;52.198;5.422;2023-07-13T11:31:03;19.50;79.70
17437;DHT22;70275;52.198;5.422;2023-07-13T11:33:53;19.60;80.40
17437;DHT22;70275;52.198;5.422;2023-07-13T11:36:35;20.00;79.90
17437;DHT22;70275;52.198;5.422;2023-07-13T11:39:16;19.70;80.80
17437;DHT22;70275;52.198;5.422;2023-07-13T11:41:51;19.80;80.30
17437;DHT22;70275;52.198;5.422;2023-07-13T11:44:27;19.80;79.90
17437;DHT22;70275;52.198;5.422;2023-07-13T11:46:59;20.10;78.10
17437;DHT22;70275;52.198;5.422;2023-07-13T11:49:43;20.90;76.20
17437;DHT22;70275;52.198;5.422;2023-07-13T11:52:15;21.10;76.20
17437;DHT22;70275;52.198;5.422;2023-07-13T11:54:48;22.00;75.80
17437;DHT22;70275;52.198;5.422;2023-07-13T11:57:25;21.90;76.50
17437;DHT22;70275;52.198;5.422;2023-07-13T12:00:02;22.10;73.40
17437;DHT22;70275;52.198;5.422;2023-07-13T12:02:36;21.30;74.40
17437;DHT22;70275;52.198;5.422;2023-07-13T12:05:11;21.20;74.50
17437;DHT22;70275;52.198;5.422;2023-07-13T12:07:43;21.10;73.70
17437;DHT22;70275;52.198;5.422;2023-07-13T12:10:19;21.00;73.60
17437;DHT22;70275;52.198;5.422;2023-07-13T12:12:53;21.10;71.20
17437;DHT22;70275;52.198;5.422;2023-07-13T12:15:35;21.30;70.60
17437;DHT22;70275;52.198;5.422;2023-07-13T12:18:13;22.30;70.20
17437;DHT22;70275;52.198;5.422;2023-07-13T12:20:45;22.30;66.90
17437;DHT22;70275;52.198;5.422;2023-07-13T12:23:22;21.90;65.90
17437;DHT22;70275;52.198;5.422;2023-07-13T12:25:54;22.00;68.20
17437;DHT22;70275;52.198;5.422;2023-07-13T12:28:32;21.70;65.60
17437;DHT22;70275;52.198;5.422;2023-07-13T12:31:07;22.20;63.50
17437;DHT22;70275;52.198;5.422;2023-07-13T12:34:01;22.80;62.00
17437;DHT22;70275;52.198;5.422;2023-07-13T12:36:33;23.10;62.20
17437;DHT22;70275;52.198;5.422;2023-07-13T12:39:13;22.50;61.30
17437;DHT22;70275;52.198;5.422;2023-07-13T12:41:45;22.50;63.80
17437;DHT22;70275;52.198;5.422;2023-07-13T12:44:17;23.60;57.60
17437;DHT22;70275;52.198;5.422;2023-07-13T12:47:02;24.20;56.70
17437;DHT22;70275;52.198;5.422;2023-07-13T12:49:42;23.50;57.00
17437;DHT22;70275;52.198;5.422;2023-07-13T12:52:19;23.70;56.30
17437;DHT22;70275;52.198;5.422;2023-07-13T12:54:54;24.70;54.60
17437;DHT22;70275;52.198;5.422;2023-07-13T12:57:26;24.30;57.20
17437;DHT22;70275;52.198;5.422;2023-07-13T12:59:56;24.50;53.80
17437;DHT22;70275;52.198;5.422;2023-07-13T13:02:31;23.80;56.00
17437;DHT22;70275;52.198;5.422;2023-07-13T13:05:03;23.50;55.90
17437;DHT22;70275;52.198;5.422;2023-07-13T13:07:33;23.30;59.00
17437;DHT22;70275;52.198;5.422;2023-07-13T13:10:11;24.50;55.70
17437;DHT22;70275;52.198;5.422;2023-07-13T13:12:41;25.20;53.10
17437;DHT22;70275;52.198;5.422;2023-07-13T13:15:11;25.20;52.20
17437;DHT22;70275;52.198;5.422;2023-07-13T13:17:44;24.50;54.90
17437;DHT22;70275;52.198;5.422;2023-07-13T13:20:15;24.10;54.20
17437;DHT22;70275;52.198;5.422;2023-07-13T13:22:46;24.50;53.90
17437;DHT22;70275;52.198;5.422;2023-07-13T13:25:15;24.10;53.80
17437;DHT22;70275;52.198;5.422;2023-07-13T13:27:45;23.30;55.60
17437;DHT22;70275;52.198;5.422;2023-07-13T13:30:16;22.80;57.60
17437;DHT22;70275;52.198;5.422;2023-07-13T13:32:50;22.50;60.00
17437;DHT22;70275;52.198;5.422;2023-07-13T13:35:20;22.80;59.00
17437;DHT22;70275;52.198;5.422;2023-07-13T13:37:52;23.40;55.70
17437;DHT22;70275;52.198;5.422;2023-07-13T13:40:22;23.20;57.70
17437;DHT22;70275;52.198;5.422;2023-07-13T13:42:53;23.00;57.70
17437;DHT22;70275;52.198;5.422;2023-07-13T13:45:23;23.30;57.60
17437;DHT22;70275;52.198;5.422;2023-07-13T13:47:55;23.80;55.30
17437;DHT22;70275;52.198;5.422;2023-07-13T13:50:24;23.70;55.50
17437;DHT22;70275;52.198;5.422;2023-07-13T13:52:53;25.00;52.00
17437;DHT22;70275;52.198;5.422;2023-07-13T13:55:23;25.40;50.80
17437;DHT22;70275;52.198;5.422;2023-07-13T13:57:52;24.80;53.00
17437;DHT22;70275;52.198;5.422;2023-07-13T14:00:21;24.60;51.80
17437;DHT22;70275;52.198;5.422;2023-07-13T14:02:51;24.30;52.10
17437;DHT22;70275;52.198;5.422;2023-07-13T14:05:24;24.60;52.20
17437;DHT22;70275;52.198;5.422;2023-07-13T14:07:55;25.00;50.90
17437;DHT22;70275;52.198;5.422;2023-07-13T14:10:25;25.50;50.30
17437;DHT22;70275;52.198;5.422;2023-07-13T14:12:57;24.60;50.70
17437;DHT22;70275;52.198;5.422;2023-07-13T14:15:28;23.90;52.80
17437;DHT22;70275;52.198;5.422;2023-07-13T14:18:02;23.90;51.70
17437;DHT22;70275;52.198;5.422;2023-07-13T14:20:31;23.70;53.90
17437;DHT22;70275;52.198;5.422;2023-07-13T14:23:00;24.10;52.40
17437;DHT22;70275;52.198;5.422;2023-07-13T14:25:29;24.30;52.20
17437;DHT22;70275;52.198;5.422;2023-07-13T14:27:59;24.00;52.30
17437;DHT22;70275;52.198;5.422;2023-07-13T14:30:33;23.50;52.40
17437;DHT22;70275;52.198;5.422;2023-07-13T14:33:08;24.00;52.70
17437;DHT22;70275;52.198;5.422;2023-07-13T14:35:38;24.40;51.40
17437;DHT22;70275;52.198;5.422;2023-07-13T14:38:10;24.90;51.10
17437;DHT22;70275;52.198;5.422;2023-07-13T14:40:42;24.20;50.60
17437;DHT22;70275;52.198;5.422;2023-07-13T14:43:13;24.40;49.90
17437;DHT22;70275;52.198;5.422;2023-07-13T14:45:46;24.50;50.50
17437;DHT22;70275;52.198;5.422;2023-07-13T14:48:22;24.60;49.60
17437;DHT22;70275;52.198;5.422;2023-07-13T14:50:55;24.00;50.20
17437;DHT22;70275;52.198;5.422;2023-07-13T14:53:27;23.90;50.50
17437;DHT22;70275;52.198;5.422;2023-07-13T14:55:56;24.90;49.20
17437;DHT22;70275;52.198;5.422;2023-07-13T14:58:25;24.20;51.10
17437;DHT22;70275;52.198;5.422;2023-07-13T15:00:55;24.30;50.70
17437;DHT22;70275;52.198;5.422;2023-07-13T15:03:27;23.90;50.90
17437;DHT22;70275;52.198;5.422;2023-07-13T15:05:56;24.00;51.00
17437;DHT22;70275;52.198;5.422;2023-07-13T15:08:25;24.50;50.20
17437;DHT22;70275;52.198;5.422;2023-07-13T15:10:54;24.50;50.40
17437;DHT22;70275;52.198;5.422;2023-07-13T15:13:26;24.60;50.10
17437;DHT22;70275;52.198;5.422;2023-07-13T15:15:55;25.30;48.40
17437;DHT22;70275;52.198;5.422;2023-07-13T15:18:27;25.10;47.70
17437;DHT22;70275;52.198;5.422;2023-07-13T15:20:59;23.60;52.30
17437;DHT22;70275;52.198;5.422;2023-07-13T15:23:29;23.60;52.10
17437;DHT22;70275;52.198;5.422;2023-07-13T15:25:59;24.60;50.90
17437;DHT22;70275;52.198;5.422;2023-07-13T15:28:29;24.10;50.40
17437;DHT22;70275;52.198;5.422;2023-07-13T15:30:59;24.30;51.00
17437;DHT22;70275;52.198;5.422;2023-07-13T15:33:32;23.90;52.00
17437;DHT22;70275;52.198;5.422;2023-07-13T15:36:03;24.40;50.60
17437;DHT22;70275;52.198;5.422;2023-07-13T15:38:36;24.90;49.50
17437;DHT22;70275;52.198;5.422;2023-07-13T15:41:13;25.10;47.00
17437;DHT22;70275;52.198;5.422;2023-07-13T15:43:47;24.60;47.70
17437;DHT22;70275;52.198;5.422;2023-07-13T15:46:17;24.20;50.80
17437;DHT22;70275;52.198;5.422;2023-07-13T15:48:51;25.10;47.20
17437;DHT22;70275;52.198;5.422;2023-07-13T15:51:24;24.30;50.20
17437;DHT22;70275;52.198;5.422;2023-07-13T15:53:57;24.10;50.50
17437;DHT22;70275;52.198;5.422;2023-07-13T15:56:35;24.50;49.30
17437;DHT22;70275;52.198;5.422;2023-07-13T15:59:09;24.80;48.40
17437;DHT22;70275;52.198;5.422;2023-07-13T16:01:40;24.60;49.10